createdAt,value
2024-01-08T00:00:59.923Z,1.17
2024-01-08T00:03:30.083Z,1.10
2024-01-08T00:06:00.581Z,1.10
2024-01-08T00:08:29.195Z,2.15
2024-01-08T00:10:57.224Z,1.17
2024-01-08T00:13:25.555Z,2.25
2024-01-08T00:15:53.644Z,1.17
2024-01-08T00:18:22.527Z,1.55
2024-01-08T00:20:50.629Z,1.22
2024-01-08T00:23:18.615Z,2.72
2024-01-08T00:25:46.851Z,2.92
2024-01-08T00:28:14.764Z,1.35
2024-01-08T00:30:42.856Z,0.75
2024-01-08T00:33:12.072Z,1.05
2024-01-08T00:35:40.350Z,2.15
2024-01-08T00:38:08.420Z,1.40
2024-01-08T00:40:36.394Z,1.15
2024-01-08T00:43:04.345Z,1.22
2024-01-08T00:45:33.147Z,3.30
2024-01-08T00:48:04.374Z,1.87
2024-01-08T00:50:32.507Z,1.52
2024-01-08T00:53:00.506Z,3.80
2024-01-08T00:55:29.274Z,1.20
2024-01-08T00:57:58.906Z,1.30
2024-01-08T01:00:26.749Z,1.17
2024-01-08T01:02:56.520Z,1.30
2024-01-08T01:05:25.120Z,1.05
2024-01-08T01:07:53.572Z,1.32
2024-01-08T01:10:23.107Z,1.25
2024-01-08T01:12:51.315Z,1.02
2024-01-08T01:15:19.282Z,1.02
2024-01-08T01:17:47.329Z,0.47
2024-01-08T01:20:15.615Z,1.45
2024-01-08T01:22:43.469Z,1.57
2024-01-08T01:25:12.081Z,1.27
2024-01-08T01:27:40.791Z,1.95
2024-01-08T01:30:10.329Z,2.65
2024-01-08T01:32:38.435Z,1.75
2024-01-08T01:35:07.438Z,1.90
2024-01-08T01:37:35.540Z,1.07
2024-01-08T01:40:04.216Z,1.60
2024-01-08T01:42:32.297Z,1.05
2024-01-08T01:45:00.182Z,1.17
2024-01-08T01:47:29.071Z,1.30
2024-01-08T01:49:57.393Z,2.20
2024-01-08T01:52:27.337Z,1.15
2024-01-08T01:54:57.540Z,1.15
2024-01-08T01:57:26.742Z,1.70
2024-01-08T01:59:55.415Z,1.22
2024-01-08T02:02:25.691Z,0.93
2024-01-08T02:04:54.633Z,5.12
2024-01-08T02:07:22.650Z,1.52
2024-01-08T02:09:52.345Z,2.42
2024-01-08T02:12:21.030Z,1.22
2024-01-08T02:14:49.077Z,1.87
2024-01-08T02:17:18.014Z,1.40
2024-01-08T02:19:45.919Z,2.92
2024-01-08T02:22:13.908Z,1.40
2024-01-08T02:24:42.900Z,2.33
2024-01-08T02:27:11.472Z,2.85
2024-01-08T02:29:39.619Z,2.25
2024-01-08T02:32:09.095Z,3.15
2024-01-08T02:34:39.082Z,2.15
2024-01-08T02:37:07.382Z,1.55
2024-01-08T02:39:37.816Z,1.35
2024-01-08T02:42:06.435Z,1.35
2024-01-08T02:44:34.612Z,1.65
2024-01-08T02:47:04.174Z,1.80
2024-01-08T02:49:32.049Z,3.67
2024-01-08T02:52:00.007Z,2.35
2024-01-08T02:54:27.951Z,1.42
2024-01-08T02:56:56.086Z,1.22
2024-01-08T02:59:23.968Z,1.62
2024-01-08T03:01:52.448Z,3.62
2024-01-08T03:04:20.343Z,2.10
2024-01-08T03:06:48.398Z,1.90
2024-01-08T03:09:16.316Z,2.62
2024-01-08T03:11:44.177Z,4.08
2024-01-08T03:14:12.019Z,2.02
2024-01-08T03:16:39.983Z,3.02
2024-01-08T03:19:07.980Z,1.92
2024-01-08T03:21:35.884Z,2.17
2024-01-08T03:24:04.175Z,5.00
2024-01-08T03:26:32.118Z,4.80
2024-01-08T03:29:00.330Z,8.18
2024-01-08T03:31:28.629Z,3.00
2024-01-08T03:33:56.824Z,5.85
2024-01-08T03:36:25.038Z,8.13
2024-01-08T03:38:52.955Z,19.73
2024-01-08T03:41:21.077Z,10.10
2024-01-08T03:43:49.123Z,10.80
2024-01-08T03:46:17.036Z,14.38
2024-01-08T03:48:45.008Z,10.72
2024-01-08T03:51:13.097Z,8.70
2024-01-08T03:53:41.152Z,11.63
2024-01-08T03:56:09.078Z,10.15
2024-01-08T03:58:38.192Z,9.55
2024-01-08T04:01:06.405Z,8.60
2024-01-08T04:03:34.883Z,5.87
2024-01-08T04:06:03.041Z,6.53
2024-01-08T04:08:31.205Z,10.68
2024-01-08T04:10:59.370Z,12.43
2024-01-08T04:13:27.325Z,10.88
2024-01-08T04:15:55.158Z,8.90
2024-01-08T04:18:23.073Z,13.00
2024-01-08T04:20:51.006Z,12.35
2024-01-08T04:23:19.159Z,14.05
2024-01-08T04:25:47.073Z,13.50
2024-01-08T04:28:15.079Z,13.62
2024-01-08T04:30:43.158Z,10.05
2024-01-08T04:33:10.974Z,8.00
2024-01-08T04:35:38.828Z,5.97
2024-01-08T04:38:07.138Z,5.40
2024-01-08T04:40:35.004Z,5.95
2024-01-08T04:43:03.287Z,6.50
2024-01-08T04:45:31.589Z,4.92
2024-01-08T04:48:00.468Z,4.15
2024-01-08T04:50:28.593Z,3.02
2024-01-08T04:52:56.712Z,3.10
2024-01-08T04:55:24.871Z,2.50
2024-01-08T04:57:52.679Z,2.22
2024-01-08T05:00:20.641Z,3.05
2024-01-08T05:02:48.749Z,8.60
2024-01-08T05:05:17.429Z,8.43
2024-01-08T05:07:45.566Z,5.97
2024-01-08T05:10:13.565Z,8.80
2024-01-08T05:12:41.551Z,8.00
2024-01-08T05:15:10.035Z,3.15
2024-01-08T05:17:38.109Z,4.65
2024-01-08T05:20:07.807Z,25.92
2024-01-08T05:22:35.848Z,2.50
2024-01-08T05:25:03.950Z,5.55
2024-01-08T05:27:32.005Z,3.98
2024-01-08T05:30:00.008Z,6.05
2024-01-08T05:32:28.150Z,5.12
2024-01-08T05:34:56.637Z,6.10
2024-01-08T05:37:24.664Z,3.98
2024-01-08T05:39:52.604Z,3.42
2024-01-08T05:42:20.743Z,6.10
2024-01-08T05:44:48.931Z,11.50
2024-01-08T05:47:16.847Z,7.87
2024-01-08T05:49:44.803Z,6.53
2024-01-08T05:52:12.961Z,10.60
2024-01-08T05:54:40.801Z,12.00
2024-01-08T05:57:08.879Z,13.20
2024-01-08T05:59:38.850Z,16.93
2024-01-08T06:02:06.466Z,11.45
2024-01-08T06:04:34.493Z,15.70
2024-01-08T06:07:02.342Z,11.18
2024-01-08T06:09:30.119Z,13.20
2024-01-08T06:11:59.226Z,10.90
2024-01-08T06:16:55.015Z,17.05
2024-01-08T06:19:22.874Z,12.33
2024-01-08T06:21:50.853Z,9.50
2024-01-08T06:24:18.754Z,12.50
2024-01-08T06:26:46.642Z,13.78
2024-01-08T06:29:14.550Z,13.45
2024-01-08T06:31:42.687Z,6.97
2024-01-08T06:34:10.897Z,8.48
2024-01-08T06:36:41.575Z,10.28
2024-01-08T06:39:12.714Z,7.97
2024-01-08T06:41:40.666Z,14.63
2024-01-08T06:44:08.558Z,11.30
2024-01-08T06:46:36.572Z,9.73
2024-01-08T06:49:04.399Z,7.03
2024-01-08T06:51:35.851Z,7.67
2024-01-08T06:54:04.462Z,11.20
2024-01-08T06:56:32.596Z,8.30
2024-01-08T06:59:04.622Z,9.50
2024-01-08T07:01:32.641Z,9.90
2024-01-08T07:04:00.579Z,10.63
2024-01-08T07:06:28.725Z,12.25
2024-01-08T07:08:56.683Z,8.98
2024-01-08T07:11:25.769Z,11.38
2024-01-08T07:13:54.093Z,14.15
2024-01-08T07:16:22.013Z,9.58
2024-01-08T07:18:50.175Z,10.88
2024-01-08T07:21:19.329Z,15.72
2024-01-08T07:23:48.832Z,24.50
2024-01-08T07:26:17.313Z,50.17
2024-01-08T07:28:46.471Z,42.53
2024-01-08T07:31:16.201Z,23.22
2024-01-08T07:33:44.515Z,30.40
2024-01-08T07:36:14.244Z,26.05
2024-01-08T07:38:42.248Z,24.80
2024-01-08T07:41:10.350Z,16.87
2024-01-08T07:43:39.931Z,18.45
2024-01-08T07:46:08.411Z,20.55
2024-01-08T07:48:36.505Z,18.60
2024-01-08T07:51:05.158Z,12.05
2024-01-08T07:53:33.026Z,18.82
2024-01-08T07:56:01.041Z,20.50
2024-01-08T07:58:36.166Z,13.70
2024-01-08T08:01:00.421Z,16.40
2024-01-08T08:03:28.533Z,21.42
2024-01-08T08:05:58.906Z,23.05
2024-01-08T08:08:27.419Z,19.60
2024-01-08T08:11:05.359Z,17.55
2024-01-08T08:13:39.135Z,15.80
2024-01-08T08:16:29.506Z,13.45
2024-01-08T08:18:57.980Z,12.15
2024-01-08T08:21:26.382Z,8.55
2024-01-08T08:23:58.446Z,14.73
2024-01-08T08:26:26.628Z,11.05
2024-01-08T08:28:54.648Z,11.90
2024-01-08T08:31:22.512Z,14.38
2024-01-08T08:33:53.096Z,14.60
2024-01-08T08:36:20.291Z,9.38
2024-01-08T08:38:48.380Z,11.85
2024-01-08T08:41:18.620Z,9.88
2024-01-08T08:43:48.803Z,8.45
2024-01-08T08:46:24.059Z,11.75
2024-01-08T08:51:21.540Z,5.22
2024-01-08T08:53:49.460Z,4.92
2024-01-08T08:56:17.856Z,24.23
2024-01-08T08:58:47.921Z,8.10
2024-01-08T09:01:15.971Z,19.67
2024-01-08T09:03:44.146Z,8.08
2024-01-08T09:06:12.747Z,11.78
2024-01-08T09:08:45.558Z,13.98
2024-01-08T09:11:13.850Z,14.95
2024-01-08T09:13:42.052Z,11.63
2024-01-08T09:16:14.806Z,14.38
2024-01-08T09:18:44.008Z,16.23
2024-01-08T09:21:15.994Z,8.93
2024-01-08T09:23:44.310Z,9.70
2024-01-08T09:26:13.934Z,10.72
2024-01-08T09:28:41.908Z,13.75
2024-01-08T09:31:11.751Z,9.28
2024-01-08T09:33:42.525Z,14.53
2024-01-08T09:39:05.168Z,7.83
2024-01-08T09:41:45.464Z,17.02
2024-01-08T09:44:16.857Z,17.02
2024-01-08T09:46:52.854Z,6.60
2024-01-08T09:51:49.707Z,8.65
2024-01-08T09:56:59.119Z,8.93
2024-01-08T09:59:29.332Z,7.00
2024-01-08T10:01:58.307Z,7.25
2024-01-08T10:04:26.999Z,7.50
2024-01-08T10:07:11.730Z,7.12
2024-01-08T10:09:42.235Z,10.88
2024-01-08T10:12:11.088Z,13.85
2024-01-08T10:14:48.039Z,19.35
2024-01-08T10:17:25.623Z,37.60
2024-01-08T10:20:07.444Z,14.98
2024-01-08T10:22:35.666Z,17.73
2024-01-08T10:25:04.384Z,47.62
2024-01-08T10:27:32.526Z,7.20
2024-01-08T10:30:00.631Z,11.50
2024-01-08T10:32:28.826Z,10.38
2024-01-08T10:34:57.199Z,10.93
2024-01-08T10:37:29.010Z,12.05
2024-01-08T10:39:59.995Z,15.58
2024-01-08T10:42:28.121Z,17.10
2024-01-08T10:44:55.892Z,7.42
2024-01-08T10:47:29.408Z,12.37
2024-01-08T10:50:01.445Z,8.40
2024-01-08T10:52:35.309Z,7.72
2024-01-08T10:55:06.067Z,6.83
2024-01-08T10:58:04.124Z,7.50
2024-01-08T11:00:35.051Z,4.95
2024-01-08T11:03:03.653Z,5.47
2024-01-08T11:05:37.915Z,6.45
2024-01-08T11:08:09.610Z,6.55
2024-01-08T11:10:38.390Z,6.45
2024-01-08T11:13:06.282Z,4.08
2024-01-08T11:15:34.086Z,5.72
2024-01-08T11:18:03.982Z,8.05
2024-01-08T11:20:45.498Z,6.70
2024-01-08T11:23:41.455Z,7.62
2024-01-08T11:29:06.714Z,6.00
2024-01-08T11:31:42.813Z,4.37
2024-01-08T11:34:42.066Z,5.92
2024-01-08T11:37:20.985Z,6.12
2024-01-08T11:39:50.714Z,6.87
2024-01-08T11:42:20.703Z,6.12
2024-01-08T11:44:49.740Z,8.08
2024-01-08T11:47:18.647Z,9.50
2024-01-08T11:49:46.909Z,6.53
2024-01-08T11:52:16.273Z,8.23
2024-01-08T11:54:46.086Z,8.68
2024-01-08T11:57:14.281Z,7.95
2024-01-08T11:59:42.100Z,7.72
2024-01-08T12:02:18.390Z,6.95
2024-01-08T12:04:59.021Z,6.72
2024-01-08T12:07:31.014Z,9.70
2024-01-08T12:10:06.781Z,9.13
2024-01-08T12:12:40.333Z,7.33
2024-01-08T12:15:09.505Z,7.90
2024-01-08T12:17:41.424Z,9.15
2024-01-08T12:20:12.069Z,7.00
2024-01-08T12:22:40.082Z,11.88
2024-01-08T12:25:11.085Z,9.45
2024-01-08T12:27:41.405Z,9.65
2024-01-08T12:30:10.610Z,7.58
2024-01-08T12:32:39.132Z,7.05
2024-01-08T12:35:16.202Z,7.45
2024-01-08T12:37:44.328Z,12.55
2024-01-08T12:40:13.754Z,11.20
2024-01-08T12:42:45.849Z,10.80
2024-01-08T12:45:13.848Z,12.60
2024-01-08T12:47:47.960Z,20.37
2024-01-08T12:50:16.503Z,16.10
2024-01-08T12:52:47.382Z,10.25
2024-01-08T12:55:15.822Z,10.32
2024-01-08T12:57:45.502Z,12.90
2024-01-08T13:00:14.425Z,10.93
2024-01-08T13:02:42.441Z,12.15
2024-01-08T13:05:14.355Z,13.95
2024-01-08T13:07:40.338Z,12.18
2024-01-08T13:10:08.624Z,17.80
2024-01-08T13:12:38.365Z,16.90
2024-01-08T13:15:07.516Z,15.90
2024-01-08T13:17:35.704Z,11.05
2024-01-08T13:20:18.803Z,20.08
2024-01-08T13:22:40.490Z,11.25
2024-01-08T13:25:10.601Z,13.18
2024-01-08T13:27:38.434Z,10.40
2024-01-08T13:30:08.300Z,13.28
2024-01-08T13:32:37.171Z,20.17
2024-01-08T13:35:11.884Z,43.55
2024-01-08T13:37:38.678Z,16.75
2024-01-08T13:40:08.171Z,20.88
2024-01-08T13:42:38.521Z,17.37
2024-01-08T13:45:09.410Z,34.73
2024-01-08T13:47:37.967Z,12.35
2024-01-08T13:50:07.965Z,18.15
2024-01-08T13:52:36.539Z,19.92
2024-01-08T13:55:05.990Z,13.88
2024-01-08T13:57:33.808Z,9.78
2024-01-08T14:00:04.664Z,12.93
2024-01-08T14:02:36.397Z,13.43
2024-01-08T14:05:04.816Z,10.88
2024-01-08T14:07:33.055Z,13.40
2024-01-08T14:10:00.952Z,17.02
2024-01-08T14:12:28.960Z,10.72
2024-01-08T14:14:57.358Z,8.63
2024-01-08T14:17:25.328Z,5.17
2024-01-08T14:19:53.239Z,11.45
2024-01-08T14:22:21.429Z,14.70
2024-01-08T14:24:50.545Z,10.75
2024-01-08T14:27:18.550Z,13.83
2024-01-08T14:29:48.318Z,13.68
2024-01-08T14:32:18.288Z,11.78
2024-01-08T14:34:45.756Z,7.65
2024-01-08T14:37:14.145Z,9.90
2024-01-08T14:39:42.477Z,28.92
2024-01-08T14:42:10.952Z,18.87
2024-01-08T14:44:39.063Z,15.40
2024-01-08T14:47:07.260Z,19.82
2024-01-08T14:49:35.268Z,11.93
2024-01-08T14:52:04.227Z,10.63
2024-01-08T14:54:32.169Z,10.75
2024-01-08T14:57:01.847Z,14.93
2024-01-08T14:59:29.764Z,10.00
2024-01-08T15:02:00.117Z,9.75
2024-01-08T15:04:27.965Z,10.82
2024-01-08T15:07:00.627Z,10.82
2024-01-08T15:09:28.801Z,9.13
2024-01-08T15:11:58.606Z,10.90
2024-01-08T15:14:26.855Z,13.05
2024-01-08T15:17:02.619Z,9.23
2024-01-08T15:19:31.784Z,11.83
2024-01-08T15:22:08.702Z,12.70
2024-01-08T15:24:37.738Z,14.38
2024-01-08T15:27:06.393Z,17.35
2024-01-08T15:29:34.651Z,17.45
2024-01-08T15:32:05.207Z,14.28
2024-01-08T15:34:36.965Z,19.60
2024-01-08T15:37:07.709Z,17.77
2024-01-08T15:39:35.938Z,21.52
2024-01-08T15:45:29.890Z,13.25
2024-01-08T15:47:58.007Z,15.20
2024-01-08T15:50:26.746Z,15.58
2024-01-08T15:52:58.182Z,10.72
2024-01-08T15:55:26.225Z,8.60
2024-01-08T15:57:56.202Z,11.25
2024-01-08T16:00:24.829Z,9.40
2024-01-08T16:02:54.577Z,10.50
2024-01-08T16:05:31.846Z,9.45
2024-01-08T16:08:03.815Z,12.93
2024-01-08T16:10:37.103Z,17.37
2024-01-08T16:13:04.965Z,18.30
2024-01-08T16:15:33.525Z,12.70
2024-01-08T16:18:01.547Z,13.95
2024-01-08T16:20:34.380Z,18.12
2024-01-08T16:23:05.324Z,14.75
2024-01-08T16:32:10.865Z,17.73
2024-01-08T16:34:45.945Z,13.25
2024-01-08T16:37:13.705Z,13.47
2024-01-08T16:40:04.701Z,15.38
2024-01-08T16:42:33.636Z,12.93
2024-01-08T16:45:09.280Z,27.37
2024-01-08T16:47:48.609Z,14.15
2024-01-08T16:50:12.846Z,22.22
2024-01-08T16:52:41.482Z,45.12
2024-01-08T16:55:10.063Z,33.25
2024-01-08T16:57:39.749Z,45.05
2024-01-08T17:00:11.301Z,34.15
2024-01-08T17:02:41.547Z,31.60
2024-01-08T17:05:17.188Z,23.15
2024-01-08T17:07:45.115Z,25.40
2024-01-08T17:10:15.794Z,20.30
2024-01-08T17:12:43.947Z,15.80
2024-01-08T17:15:12.932Z,16.55
2024-01-08T17:17:42.101Z,16.60
2024-01-08T17:20:13.853Z,18.12
2024-01-08T17:22:42.017Z,17.48
2024-01-08T17:25:10.050Z,18.73
2024-01-08T17:27:38.116Z,22.22
2024-01-08T17:30:09.154Z,21.80
2024-01-08T17:32:38.943Z,15.58
2024-01-08T17:35:08.769Z,15.03
2024-01-08T17:37:36.754Z,24.77
2024-01-08T17:40:06.340Z,15.45
2024-01-08T17:42:36.246Z,27.42
2024-01-08T17:45:05.772Z,17.82
2024-01-08T17:47:37.167Z,19.60
2024-01-08T17:50:07.460Z,12.00
2024-01-08T17:52:35.530Z,20.85
2024-01-08T17:55:04.232Z,13.32
2024-01-08T17:57:33.115Z,14.60
2024-01-08T18:00:05.390Z,18.42
2024-01-08T18:02:36.401Z,11.78
2024-01-08T18:05:05.796Z,13.70
2024-01-08T18:07:34.047Z,14.45
2024-01-08T18:10:01.994Z,15.30
2024-01-08T18:12:30.286Z,14.40
2024-01-08T18:14:58.673Z,20.88
2024-01-08T18:17:26.946Z,16.20
2024-01-08T18:19:54.845Z,16.00
2024-01-08T18:22:22.890Z,23.02
2024-01-08T18:24:50.871Z,19.48
2024-01-08T18:27:18.821Z,18.55
2024-01-08T18:29:47.250Z,23.12
2024-01-08T18:32:15.953Z,20.88
2024-01-08T18:34:45.327Z,18.50
2024-01-08T18:37:13.266Z,17.85
2024-01-08T18:39:41.891Z,16.07
2024-01-08T18:42:13.008Z,17.77
2024-01-08T18:44:42.346Z,18.55
2024-01-08T18:47:10.466Z,25.95
2024-01-08T18:49:48.256Z,24.57
2024-01-08T18:52:16.210Z,22.32
2024-01-08T18:54:44.151Z,18.60
2024-01-08T18:57:12.446Z,27.80
2024-01-08T18:59:41.577Z,22.52
2024-01-08T19:02:10.321Z,15.85
2024-01-08T19:04:38.817Z,11.35
2024-01-08T19:07:07.388Z,10.68
2024-01-08T19:09:36.916Z,14.53
2024-01-08T19:12:07.737Z,5.17
2024-01-08T19:14:35.769Z,11.28
2024-01-08T19:17:04.129Z,11.05
2024-01-08T19:19:33.994Z,8.58
2024-01-08T19:22:05.021Z,8.93
2024-01-08T19:24:34.939Z,8.65
2024-01-08T19:27:06.034Z,8.18
2024-01-08T19:29:34.242Z,8.28
2024-01-08T19:32:02.718Z,8.13
2024-01-08T19:34:30.598Z,12.15
2024-01-08T19:36:59.036Z,15.18
2024-01-08T19:39:27.491Z,21.85
2024-01-08T19:41:59.125Z,34.10
2024-01-08T19:44:27.153Z,24.63
2024-01-08T19:46:56.890Z,17.55
2024-01-08T19:49:31.054Z,15.88
2024-01-08T19:51:58.214Z,12.65
2024-01-08T19:54:27.186Z,13.05
2024-01-08T19:56:55.353Z,12.68
2024-01-08T19:59:24.730Z,9.78
2024-01-08T20:01:52.709Z,12.70
2024-01-08T20:04:22.635Z,13.93
2024-01-08T20:06:52.574Z,20.50
2024-01-08T20:09:22.556Z,9.68
2024-01-08T20:11:51.520Z,46.60
2024-01-08T20:14:19.814Z,12.05
2024-01-08T20:16:49.411Z,9.35
2024-01-08T20:19:17.563Z,24.05
2024-01-08T20:21:46.470Z,93.65
2024-01-08T20:24:16.355Z,12.63
2024-01-08T20:26:46.212Z,15.53
2024-01-08T20:29:14.685Z,32.53
2024-01-08T20:31:42.864Z,14.70
2024-01-08T20:34:12.801Z,43.25
2024-01-08T20:36:41.392Z,9.98
2024-01-08T20:39:12.890Z,10.90
2024-01-08T20:41:41.151Z,4.28
2024-01-08T20:44:09.181Z,6.70
2024-01-08T20:46:37.482Z,22.00
2024-01-08T20:49:05.662Z,27.42
2024-01-08T20:51:34.422Z,42.30
2024-01-08T20:54:03.941Z,21.55
2024-01-08T20:56:32.025Z,58.70
2024-01-08T20:59:01.502Z,34.95
2024-01-08T21:01:29.513Z,14.00
2024-01-08T21:03:57.983Z,5.00
2024-01-08T21:06:26.493Z,9.23
2024-01-08T21:08:54.721Z,7.08
2024-01-08T21:11:23.007Z,9.05
2024-01-08T21:13:53.030Z,13.88
2024-01-08T21:16:21.229Z,16.77
2024-01-08T21:18:50.813Z,21.25
2024-01-08T21:21:18.786Z,8.28
2024-01-08T21:23:49.686Z,16.00
2024-01-08T21:26:18.403Z,17.62
2024-01-08T21:28:46.562Z,27.93
2024-01-08T21:31:15.176Z,28.25
2024-01-08T21:33:43.281Z,27.93
2024-01-08T21:36:14.359Z,24.65
2024-01-08T21:38:41.876Z,22.60
2024-01-08T21:41:11.633Z,22.85
2024-01-08T21:43:39.594Z,24.12
2024-01-08T21:46:07.581Z,25.35
2024-01-08T21:48:35.791Z,28.17
2024-01-08T21:51:04.648Z,23.18
2024-01-08T21:53:32.694Z,25.10
2024-01-08T21:56:00.695Z,32.65
2024-01-08T21:58:28.729Z,30.72
2024-01-08T22:00:56.946Z,28.30
2024-01-08T22:03:25.225Z,17.17
2024-01-08T22:05:53.411Z,18.70
2024-01-08T22:08:23.120Z,13.48
2024-01-08T22:10:50.985Z,15.65
2024-01-08T22:13:19.002Z,13.90
2024-01-08T22:15:49.001Z,11.40
2024-01-08T22:18:17.599Z,17.98
2024-01-08T22:20:46.085Z,22.35
2024-01-08T22:23:14.411Z,13.83
2024-01-08T22:25:42.599Z,9.98
2024-01-08T22:28:10.662Z,6.35
2024-01-08T22:30:41.185Z,10.48
2024-01-08T22:33:09.400Z,12.40
2024-01-08T22:35:37.768Z,7.30
2024-01-08T22:38:07.929Z,4.95
2024-01-08T22:40:37.600Z,10.38
2024-01-08T22:43:05.826Z,8.60
2024-01-08T22:45:34.101Z,4.90
2024-01-08T22:48:21.712Z,5.55
2024-01-08T22:50:50.071Z,6.70
2024-01-08T22:53:20.349Z,20.45
2024-01-08T22:55:50.170Z,8.18
2024-01-08T23:01:14.394Z,8.63
2024-01-08T23:03:46.973Z,20.68
2024-01-08T23:06:14.785Z,37.33
2024-01-08T23:08:43.869Z,35.10
2024-01-08T23:11:11.778Z,14.68
2024-01-08T23:13:39.688Z,22.48
2024-01-08T23:16:07.891Z,28.50
2024-01-08T23:18:35.841Z,37.28
2024-01-08T23:21:04.137Z,38.48
2024-01-08T23:23:33.351Z,28.77
2024-01-08T23:26:03.261Z,8.50
2024-01-08T23:28:31.195Z,10.58
2024-01-08T23:30:59.302Z,11.93
2024-01-08T23:33:27.973Z,12.13
2024-01-08T23:35:56.462Z,11.05
2024-01-08T23:38:26.134Z,8.85
2024-01-08T23:40:53.941Z,8.10
2024-01-08T23:43:21.925Z,3.22
2024-01-08T23:45:49.953Z,3.10
2024-01-08T23:48:17.887Z,2.65
2024-01-08T23:50:46.000Z,3.30
2024-01-08T23:53:14.180Z,8.25
2024-01-08T23:55:42.185Z,9.25
2024-01-08T23:58:10.408Z,3.40
